createdAt,value
2018-07-27T00:00:24.052Z,54.40
2018-07-27T00:02:53.376Z,54.30
2018-07-27T00:05:22.727Z,54.30
2018-07-27T00:07:51.375Z,54.30
2018-07-27T00:10:20.130Z,54.30
2018-07-27T00:12:49.977Z,54.40
2018-07-27T00:15:18.815Z,54.50
2018-07-27T00:17:48.132Z,54.50
2018-07-27T00:20:16.647Z,54.50
2018-07-27T00:22:46.217Z,54.50
2018-07-27T00:25:14.891Z,54.50
2018-07-27T00:27:43.417Z,54.50
2018-07-27T00:30:11.913Z,54.50
2018-07-27T00:32:49.627Z,54.60
2018-07-27T00:35:23.570Z,54.50
2018-07-27T00:38:31.057Z,54.20
2018-07-27T00:43:39.160Z,53.50
2018-07-27T00:46:07.531Z,53.50
2018-07-27T00:48:35.874Z,53.40
2018-07-27T00:51:04.401Z,53.50
2018-07-27T00:53:32.714Z,53.50
2018-07-27T00:56:01.061Z,53.70
2018-07-27T00:58:29.858Z,53.90
2018-07-27T01:00:58.399Z,54.30
2018-07-27T01:03:26.741Z,54.90
2018-07-27T01:05:55.847Z,55.40
2018-07-27T01:08:24.680Z,55.80
2018-07-27T01:10:53.802Z,56.30
2018-07-27T01:13:22.287Z,56.70
2018-07-27T01:15:50.633Z,57.10
2018-07-27T01:18:24.179Z,57.40
2018-07-27T01:20:53.098Z,57.80
2018-07-27T01:23:22.236Z,58.10
2018-07-27T01:25:51.416Z,58.50
2018-07-27T01:28:22.091Z,59.00
2018-07-27T01:30:51.454Z,59.40
2018-07-27T01:33:20.718Z,59.80
2018-07-27T01:35:49.453Z,60.00
2018-07-27T01:38:23.543Z,60.20
2018-07-27T01:40:52.574Z,60.60
2018-07-27T01:43:23.099Z,60.90
2018-07-27T01:45:51.762Z,61.20
2018-07-27T01:48:20.505Z,61.50
2018-07-27T01:50:49.623Z,61.70
2018-07-27T01:53:18.546Z,62.40
2018-07-27T01:55:47.427Z,62.70
2018-07-27T01:58:15.826Z,63.10
2018-07-27T02:00:44.538Z,63.40
2018-07-27T02:03:12.903Z,63.60
2018-07-27T02:05:42.001Z,63.70
2018-07-27T02:08:11.003Z,63.90
2018-07-27T02:10:40.178Z,64.80
2018-07-27T02:13:08.674Z,64.40
2018-07-27T02:15:38.153Z,64.40
2018-07-27T02:18:07.983Z,64.20
2018-07-27T02:20:36.655Z,64.10
2018-07-27T02:23:06.052Z,64.20
2018-07-27T02:25:35.355Z,64.20
2018-07-27T02:28:03.944Z,64.00
2018-07-27T02:30:32.618Z,64.20
2018-07-27T02:33:01.064Z,64.40
2018-07-27T02:35:29.491Z,64.20
2018-07-27T02:37:57.904Z,63.80
2018-07-27T02:40:26.372Z,63.70
2018-07-27T02:42:55.763Z,63.70
2018-07-27T02:45:25.142Z,64.00
2018-07-27T02:47:56.110Z,64.10
2018-07-27T02:50:24.890Z,64.10
2018-07-27T02:52:54.007Z,64.20
2018-07-27T02:55:22.269Z,64.20
2018-07-27T02:57:51.450Z,64.30
2018-07-27T03:00:19.983Z,64.60
2018-07-27T03:02:53.243Z,64.90
2018-07-27T03:05:21.551Z,65.40
2018-07-27T03:07:50.041Z,65.50
2018-07-27T03:10:18.987Z,65.80
2018-07-27T03:12:47.352Z,66.00
2018-07-27T03:15:15.659Z,66.30
2018-07-27T03:17:44.334Z,66.60
2018-07-27T03:20:13.019Z,66.80
2018-07-27T03:22:41.561Z,67.10
2018-07-27T03:25:10.056Z,67.30
2018-07-27T03:27:40.392Z,67.60
2018-07-27T03:30:09.039Z,67.80
2018-07-27T03:32:37.631Z,67.90
2018-07-27T03:35:07.853Z,68.00
2018-07-27T03:37:37.209Z,68.10
2018-07-27T03:40:06.446Z,68.20
2018-07-27T03:45:21.662Z,68.50
2018-07-27T03:47:50.505Z,68.50
2018-07-27T03:50:19.241Z,68.40
2018-07-27T03:52:47.597Z,68.50
2018-07-27T03:55:16.233Z,68.60
2018-07-27T03:57:45.620Z,68.70
2018-07-27T04:00:14.691Z,68.90
2018-07-27T04:02:43.698Z,69.10
2018-07-27T04:05:12.284Z,69.30
2018-07-27T04:07:41.775Z,69.50
2018-07-27T04:10:10.167Z,69.40
2018-07-27T04:12:38.867Z,69.40
2018-07-27T04:15:07.379Z,69.40
2018-07-27T04:17:36.757Z,69.50
2018-07-27T04:20:05.436Z,69.40
2018-07-27T04:22:35.656Z,69.60
2018-07-27T04:25:04.604Z,69.70
2018-07-27T04:27:34.743Z,69.70
2018-07-27T04:30:03.991Z,69.60
2018-07-27T04:32:33.552Z,69.50
2018-07-27T04:35:02.565Z,69.60
2018-07-27T04:37:33.104Z,69.70
2018-07-27T04:40:02.811Z,69.80
2018-07-27T04:42:31.905Z,69.80
2018-07-27T04:45:00.465Z,69.80
2018-07-27T04:47:28.903Z,69.70
2018-07-27T04:49:57.367Z,69.60
2018-07-27T04:52:25.855Z,69.50
2018-07-27T04:54:54.869Z,69.40
2018-07-27T04:57:24.615Z,69.30
2018-07-27T04:59:53.176Z,69.20
2018-07-27T05:02:21.671Z,69.20
2018-07-27T05:04:50.435Z,69.20
2018-07-27T05:07:19.209Z,69.10
2018-07-27T05:09:47.539Z,69.10
2018-07-27T05:12:17.462Z,69.00
2018-07-27T05:14:46.344Z,68.80
2018-07-27T05:17:15.254Z,68.70
2018-07-27T05:19:49.641Z,68.60
2018-07-27T05:22:20.731Z,68.40
2018-07-27T05:24:50.617Z,68.20
2018-07-27T05:27:20.442Z,68.00
2018-07-27T05:29:49.777Z,67.80
2018-07-27T05:32:52.776Z,67.60
2018-07-27T05:35:21.287Z,67.20
2018-07-27T05:37:50.817Z,67.00
2018-07-27T05:40:24.233Z,66.80
2018-07-27T05:42:54.459Z,66.70
2018-07-27T05:45:23.494Z,66.40
2018-07-27T05:47:58.699Z,66.20
2018-07-27T05:50:31.727Z,66.00
2018-07-27T05:53:00.703Z,65.80
2018-07-27T05:55:30.467Z,65.40
2018-07-27T05:57:58.980Z,65.10
2018-07-27T06:00:27.513Z,64.80
2018-07-27T06:02:57.190Z,64.50
2018-07-27T06:05:27.548Z,64.20
2018-07-27T06:07:58.082Z,63.90
2018-07-27T06:10:27.490Z,63.70
2018-07-27T06:13:02.987Z,63.40
2018-07-27T06:15:36.831Z,63.00
2018-07-27T06:18:09.080Z,62.40
2018-07-27T06:24:10.747Z,61.60
2018-07-27T06:26:40.191Z,61.30
2018-07-27T06:29:09.174Z,60.90
2018-07-27T06:31:38.091Z,60.60
2018-07-27T06:36:55.203Z,60.30
2018-07-27T06:39:24.168Z,59.60
2018-07-27T06:41:53.354Z,60.10
2018-07-27T06:44:21.845Z,59.30
2018-07-27T06:46:52.173Z,58.80
2018-07-27T06:49:21.005Z,58.40
2018-07-27T06:51:50.097Z,58.30
2018-07-27T06:54:18.664Z,57.90
2018-07-27T06:56:49.629Z,57.50
2018-07-27T06:59:21.942Z,57.00
2018-07-27T07:01:50.598Z,56.70
2018-07-27T07:04:19.925Z,56.20
2018-07-27T07:06:50.736Z,55.80
2018-07-27T07:09:20.203Z,55.60
2018-07-27T07:11:53.442Z,55.40
2018-07-27T07:14:22.122Z,55.00
2018-07-27T07:16:50.722Z,54.60
2018-07-27T07:19:19.085Z,54.20
2018-07-27T07:21:48.176Z,53.70
2018-07-27T07:24:17.194Z,53.20
2018-07-27T07:29:58.609Z,51.70
2018-07-27T07:41:16.382Z,50.90
2018-07-27T07:43:49.468Z,50.60
2018-07-27T07:46:20.994Z,50.30
2018-07-27T07:48:53.256Z,49.80
2018-07-27T07:51:22.180Z,49.60
2018-07-27T07:53:50.592Z,49.40
2018-07-27T07:56:20.481Z,48.90
2018-07-27T07:58:49.795Z,48.50
2018-07-27T08:01:20.323Z,48.20
2018-07-27T08:03:49.639Z,47.60
2018-07-27T08:09:11.580Z,46.70
2018-07-27T08:14:25.535Z,46.10
2018-07-27T08:16:54.706Z,46.20
2018-07-27T08:19:37.628Z,46.00
2018-07-27T08:22:08.220Z,45.80
2018-07-27T08:33:18.756Z,44.30
2018-07-27T08:36:00.947Z,43.90
2018-07-27T08:38:38.182Z,44.00
2018-07-27T08:44:01.483Z,43.80
2018-07-27T08:46:31.283Z,43.50
2018-07-27T08:49:14.016Z,43.40
2018-07-27T08:51:56.106Z,43.30
2018-07-27T08:54:24.868Z,43.20
2018-07-27T08:56:54.297Z,43.00
2018-07-27T08:59:22.889Z,42.80
2018-07-27T09:01:52.077Z,42.30
2018-07-27T09:04:22.456Z,41.90
2018-07-27T09:06:57.553Z,41.70
2018-07-27T09:09:27.812Z,41.40
2018-07-27T09:18:51.900Z,40.40
2018-07-27T09:21:27.236Z,40.10
2018-07-27T09:24:02.653Z,39.70
2018-07-27T09:26:33.088Z,39.50
2018-07-27T09:32:00.523Z,38.90
2018-07-27T09:34:36.586Z,38.40
2018-07-27T09:58:30.084Z,34.80
2018-07-27T10:12:04.051Z,34.90
2018-07-27T10:18:06.041Z,34.00
2018-07-27T10:26:04.453Z,34.10
2018-07-27T10:28:41.451Z,34.00
2018-07-27T10:31:21.452Z,33.70
2018-07-27T10:36:59.283Z,33.80
2018-07-27T10:39:35.617Z,33.70
2018-07-27T10:42:07.773Z,33.80
2018-07-27T10:44:37.491Z,33.80
2018-07-27T10:47:29.423Z,33.50
2018-07-27T10:50:11.323Z,33.40
2018-07-27T10:52:42.579Z,33.60
2018-07-27T10:55:18.233Z,33.60
2018-07-27T10:58:00.104Z,33.70
2018-07-27T11:00:30.696Z,34.00
2018-07-27T11:08:30.255Z,33.90
2018-07-27T11:11:01.245Z,33.80
2018-07-27T11:16:31.247Z,34.40
2018-07-27T11:28:14.193Z,34.70
2018-07-27T11:33:40.794Z,34.50
2018-07-27T11:36:30.881Z,34.10
2018-07-27T11:39:14.598Z,33.70
2018-07-27T11:41:51.380Z,33.50
2018-07-27T11:44:40.045Z,33.40
2018-07-27T11:47:35.307Z,33.40
2018-07-27T11:53:05.647Z,33.00
2018-07-27T11:58:43.687Z,33.10
2018-07-27T12:04:20.326Z,32.40
2018-07-27T12:09:49.455Z,32.40
2018-07-27T12:12:30.868Z,32.50
2018-07-27T12:30:17.012Z,31.70
2018-07-27T12:35:40.829Z,31.60
2018-07-27T12:38:26.467Z,31.70
2018-07-27T12:41:01.687Z,31.80
2018-07-27T12:43:38.403Z,31.70
2018-07-27T12:46:12.165Z,31.30
2018-07-27T12:48:44.260Z,30.80
2018-07-27T12:51:18.062Z,30.60
2018-07-27T12:53:49.695Z,30.50
2018-07-27T13:04:34.150Z,30.50
2018-07-27T13:07:38.452Z,30.40
2018-07-27T13:10:08.683Z,30.80
2018-07-27T13:15:19.856Z,31.00
2018-07-27T13:18:01.147Z,30.90
2018-07-27T13:20:46.614Z,30.90
2018-07-27T13:28:51.608Z,30.50
2018-07-27T13:32:02.700Z,30.10
2018-07-27T13:37:20.069Z,30.40
2018-07-27T13:39:55.946Z,31.00
2018-07-27T13:42:26.888Z,31.10
2018-07-27T13:45:07.823Z,31.20
2018-07-27T13:47:44.698Z,31.20
2018-07-27T14:50:19.636Z,34.60
2018-07-27T14:52:53.732Z,34.70
2018-07-27T14:55:29.453Z,34.70
2018-07-27T14:58:07.632Z,34.70
2018-07-27T15:00:42.428Z,35.00
2018-07-27T15:03:25.621Z,34.60
2018-07-27T15:06:06.385Z,33.50
2018-07-27T15:11:26.497Z,31.80
2018-07-27T15:41:59.784Z,26.30
2018-07-27T15:44:36.411Z,26.00
2018-07-27T15:47:16.362Z,25.70
2018-07-27T15:52:44.135Z,25.80
2018-07-27T15:58:08.460Z,26.40
2018-07-27T17:04:02.418Z,32.70
2018-07-27T17:37:44.834Z,34.50
2018-07-27T17:43:23.057Z,34.60
2018-07-27T18:13:13.559Z,35.30
2018-07-27T18:18:51.866Z,35.90
2018-07-27T18:21:23.127Z,36.10
2018-07-27T18:26:34.960Z,36.60
2018-07-27T18:29:14.474Z,36.70
2018-07-27T18:34:28.263Z,37.20
2018-07-27T18:37:32.743Z,37.40
2018-07-27T18:45:43.345Z,37.90
2018-07-27T18:48:30.581Z,38.10
2018-07-27T18:51:05.769Z,38.30
2018-07-27T18:53:47.996Z,38.40
2018-07-27T18:59:15.672Z,38.70
2018-07-27T19:10:15.578Z,39.10
2018-07-27T19:12:48.592Z,39.30
2018-07-27T19:15:18.709Z,39.40
2018-07-27T19:17:53.287Z,39.60
2018-07-27T19:22:54.825Z,39.90
2018-07-27T19:25:27.706Z,39.90
2018-07-27T19:28:02.423Z,40.10
2018-07-27T19:33:23.217Z,40.30
2018-07-27T19:35:57.058Z,40.50
2018-07-27T19:46:47.783Z,41.20
2018-07-27T19:54:53.637Z,41.70
2018-07-27T19:57:31.503Z,41.80
2018-07-27T20:02:41.544Z,42.20
2018-07-27T20:05:16.692Z,42.30
2018-07-27T20:12:48.937Z,42.80
2018-07-27T20:15:23.907Z,42.90
2018-07-27T20:18:22.089Z,43.00
2018-07-27T20:20:51.212Z,43.30
2018-07-27T20:23:21.714Z,43.50
2018-07-27T20:28:44.490Z,43.90
2018-07-27T20:31:16.558Z,44.10
2018-07-27T20:33:46.732Z,44.20
2018-07-27T20:36:21.227Z,44.40
2018-07-27T20:38:53.092Z,44.50
2018-07-27T20:41:21.914Z,44.50
2018-07-27T20:43:51.304Z,44.70
2018-07-27T20:46:20.724Z,44.70
2018-07-27T20:48:51.575Z,44.90
2018-07-27T20:51:22.982Z,45.10
2018-07-27T20:53:58.507Z,45.10
2018-07-27T20:56:34.634Z,45.30
2018-07-27T20:59:18.028Z,45.30
2018-07-27T21:01:55.663Z,45.50
2018-07-27T21:04:26.339Z,45.60
2018-07-27T21:06:59.359Z,45.80
2018-07-27T21:09:29.489Z,46.00
2018-07-27T21:11:59.272Z,46.20
2018-07-27T21:14:28.061Z,46.30
2018-07-27T21:17:01.972Z,46.40
2018-07-27T21:19:32.405Z,46.60
2018-07-27T21:22:07.977Z,46.80
2018-07-27T21:24:38.115Z,47.00
2018-07-27T21:27:13.412Z,47.10
2018-07-27T21:29:46.686Z,47.20
2018-07-27T21:32:16.435Z,47.40
2018-07-27T21:34:47.338Z,47.60
2018-07-27T21:37:22.320Z,47.70
2018-07-27T21:39:55.912Z,47.80
2018-07-27T21:42:27.726Z,48.10
2018-07-27T21:44:57.375Z,48.20
2018-07-27T21:47:27.018Z,48.30
2018-07-27T21:56:42.781Z,48.60
2018-07-27T21:59:36.007Z,48.70
2018-07-27T22:02:07.766Z,48.90
2018-07-27T22:04:38.985Z,49.00
2018-07-27T22:07:07.380Z,49.20
2018-07-27T22:09:36.350Z,49.30
2018-07-27T22:12:08.249Z,49.50
2018-07-27T22:14:36.791Z,49.50
2018-07-27T22:17:07.645Z,49.70
2018-07-27T22:19:36.884Z,49.80
2018-07-27T22:22:07.242Z,50.00
2018-07-27T22:24:36.611Z,50.20
2018-07-27T22:27:05.944Z,50.20
2018-07-27T22:29:36.367Z,50.30
2018-07-27T22:32:05.917Z,50.40
2018-07-27T22:34:35.438Z,50.50
2018-07-27T22:37:04.027Z,50.60
2018-07-27T22:39:36.214Z,50.70
2018-07-27T22:42:06.381Z,50.90
2018-07-27T22:44:35.749Z,51.10
2018-07-27T22:48:07.385Z,51.00
2018-07-27T22:50:37.436Z,51.20
2018-07-27T22:53:07.143Z,51.20
2018-07-27T22:55:35.533Z,51.20
2018-07-27T22:58:06.953Z,51.20
2018-07-27T23:00:35.916Z,51.30
2018-07-27T23:03:09.326Z,51.30
2018-07-27T23:05:38.077Z,51.30
2018-07-27T23:08:13.665Z,51.20
2018-07-27T23:10:42.375Z,51.20
2018-07-27T23:13:12.903Z,51.00
2018-07-27T23:15:48.952Z,50.90
2018-07-27T23:18:30.518Z,50.90
2018-07-27T23:21:01.135Z,51.10
2018-07-27T23:23:30.630Z,51.00
2018-07-27T23:25:59.671Z,51.10
2018-07-27T23:28:28.820Z,51.10
2018-07-27T23:30:57.885Z,51.10
2018-07-27T23:33:27.506Z,51.10
2018-07-27T23:35:56.499Z,51.20
2018-07-27T23:38:26.502Z,51.30
2018-07-27T23:41:00.243Z,51.40
2018-07-27T23:43:28.905Z,51.40
2018-07-27T23:45:59.438Z,51.50
2018-07-27T23:48:27.925Z,51.60
2018-07-27T23:51:02.189Z,51.60
2018-07-27T23:53:38.007Z,51.70
2018-07-27T23:56:06.928Z,51.90
2018-07-27T23:58:51.687Z,51.90
